Time;durP1;ratioP1;P1;durP2;ratioP2;P2;SDS_P1;SDS_P2;PMS_P1;PMS_P2;Temp;Humidity;BMP_temperature;BMP_pressure;BME280_temperature;BME280_humidity;BME280_pressure;Samples;Min_cycle;Max_cycle;Signal;HPM_P1;HPM_P2
2021/09/15 00:00:09;;;;;;;12.50;6.40;;;;;;;14.03;84.87;97602.09;4978566;28;20107;-78
2021/09/15 00:02:35;;;;;;;13.00;5.95;;;;;;;13.97;84.54;97589.09;5023525;28;20026;-77
2021/09/15 00:05:00;;;;;;;16.55;6.28;;;;;;;14.03;83.32;97588.66;5014359;28;20546;-77
2021/09/15 00:07:26;;;;;;;8.88;6.30;;;;;;;13.93;83.85;97601.09;5014047;28;20397;-77
2021/09/15 00:09:51;;;;;;;8.65;5.97;;;;;;;13.81;84.55;97581.31;5031797;28;20029;-77
2021/09/15 00:12:17;;;;;;;10.93;5.65;;;;;;;13.95;84.20;97604.50;5031688;28;20385;-75
2021/09/15 00:14:43;;;;;;;10.05;6.10;;;;;;;13.91;83.00;97601.19;4997820;28;20029;-75
2021/09/15 00:17:08;;;;;;;10.07;6.40;;;;;;;13.84;83.07;97599.09;5014241;28;20064;-75
2021/09/15 00:19:34;;;;;;;11.13;6.22;;;;;;;13.75;83.85;97597.09;4997638;28;20524;-76
2021/09/15 00:22:00;;;;;;;8.93;6.25;;;;;;;13.82;84.02;97601.00;5030710;28;20052;-76
2021/09/15 00:24:25;;;;;;;10.68;5.97;;;;;;;13.83;83.95;97597.34;5014009;28;20033;-76
2021/09/15 00:26:51;;;;;;;10.50;6.13;;;;;;;13.78;84.21;97592.31;5026894;28;20034;-76
2021/09/15 00:29:16;;;;;;;11.77;6.07;;;;;;;13.89;83.99;97599.59;4994510;28;20053;-75
2021/09/15 00:31:42;;;;;;;11.18;5.90;;;;;;;13.90;84.44;97606.69;5005932;28;20049;-75
2021/09/15 00:34:07;;;;;;;9.77;6.13;;;;;;;13.81;85.02;97605.53;5031716;28;20476;-76
2021/09/15 00:36:33;;;;;;;11.43;5.90;;;;;;;13.76;84.76;97605.00;5031488;28;20092;-76
2021/09/15 00:38:58;;;;;;;11.05;6.68;;;;;;;13.78;85.01;97612.97;5014048;28;20480;-76
2021/09/15 00:41:24;;;;;;;10.00;5.80;;;;;;;13.84;84.62;97607.97;5031415;28;20519;-75
2021/09/15 00:43:59;;;;;;;10.82;6.20;;;;;;;13.89;84.43;97610.34;5013911;28;20025;-75
2021/09/15 00:46:25;;;;;;;11.65;6.10;;;;;;;13.70;84.68;97588.47;5013886;28;20032;-75
2021/09/15 00:48:51;;;;;;;12.65;6.40;;;;;;;13.84;84.66;97612.53;5013862;28;20018;-77
2021/09/15 00:51:16;;;;;;;11.07;6.28;;;;;;;13.64;84.86;97588.94;5013680;28;20037;-77
2021/09/15 00:53:42;;;;;;;10.18;6.28;;;;;;;13.82;85.36;97622.53;5014355;28;20064;-77
2021/09/15 00:56:08;;;;;;;12.02;6.57;;;;;;;13.72;85.35;97598.13;5017681;28;20519;-76
2021/09/15 00:58:33;;;;;;;8.50;6.35;;;;;;;13.73;85.81;97601.69;5017671;28;20065;-77
2021/09/15 01:00:59;;;;;;;11.68;6.38;;;;;;;13.84;86.20;97613.34;5017902;28;20519;-77
2021/09/15 01:03:25;;;;;;;10.32;6.82;;;;;;;13.80;86.76;97622.66;5017314;28;20095;-77
2021/09/15 01:05:50;;;;;;;12.07;6.50;;;;;;;13.78;87.57;97618.34;5017683;28;20056;-77
2021/09/15 01:08:16;;;;;;;15.55;7.40;;;;;;;13.73;87.90;97621.38;5017889;28;20087;-77
2021/09/15 01:10:42;;;;;;;15.15;7.65;;;;;;;13.69;88.30;97617.19;5017530;28;20025;-77
2021/09/15 01:13:08;;;;;;;13.57;7.57;;;;;;;13.60;88.88;97619.72;5017675;28;20451;-77
2021/09/15 01:15:33;;;;;;;11.65;7.78;;;;;;;13.56;88.96;97611.00;5017411;28;20037;-77
2021/09/15 01:17:59;;;;;;;14.27;7.20;;;;;;;13.54;89.83;97621.84;5017296;28;20404;-77
2021/09/15 01:20:25;;;;;;;19.02;7.45;;;;;;;13.54;90.06;97632.59;5001039;28;20039;-77
2021/09/15 01:22:50;;;;;;;10.60;6.95;;;;;;;13.44;90.48;97622.66;5035057;28;20108;-76
2021/09/15 01:25:18;;;;;;;11.80;6.85;;;;;;;13.37;90.80;97619.53;5035153;28;20029;-76
2021/09/15 01:27:43;;;;;;;15.70;7.20;;;;;;;13.35;90.98;97621.47;5017780;28;20112;-76
2021/09/15 01:30:09;;;;;;;14.18;7.43;;;;;;;13.33;90.95;97618.03;5035068;28;20194;-76
2021/09/15 01:32:35;;;;;;;14.13;7.32;;;;;;;13.27;90.89;97617.59;5034407;28;20558;-76
2021/09/15 01:35:00;;;;;;;11.05;6.68;;;;;;;13.25;90.93;97615.06;5035012;28;20041;-76
2021/09/15 01:37:26;;;;;;;12.02;7.00;;;;;;;13.22;91.26;97622.47;5017013;28;20025;-76
2021/09/15 01:39:52;;;;;;;14.38;7.40;;;;;;;13.13;91.44;97615.06;5034643;28;20029;-76
2021/09/15 01:42:17;;;;;;;11.05;7.03;;;;;;;13.10;91.84;97624.19;5017346;28;20040;-76
2021/09/15 01:44:45;;;;;;;13.45;6.70;;;;;;;12.99;92.27;97616.00;5000344;28;20033;-75
2021/09/15 01:47:13;;;;;;;12.82;7.35;;;;;;;13.07;92.15;97621.69;5017066;28;20025;-76
2021/09/15 01:49:40;;;;;;;10.40;7.10;;;;;;;13.04;92.12;97632.66;5016856;28;20038;-76
2021/09/15 01:52:07;;;;;;;9.90;7.07;;;;;;;12.92;93.20;97633.53;5000225;28;20396;-76
2021/09/15 01:54:33;;;;;;;8.75;6.45;;;;;;;12.90;93.87;97628.25;5000390;28;20511;-76
2021/09/15 01:56:59;;;;;;;14.57;6.60;;;;;;;12.95;93.58;97625.25;5016781;28;20408;-76
2021/09/15 01:59:25;;;;;;;16.15;7.28;;;;;;;12.83;93.12;97629.63;5017263;28;20037;-76
2021/09/15 02:01:50;;;;;;;12.90;7.35;;;;;;;12.82;93.25;97627.06;5016602;28;20065;-76
2021/09/15 02:04:16;;;;;;;12.23;6.82;;;;;;;12.85;92.85;97641.13;5016458;28;20049;-76
2021/09/15 02:06:41;;;;;;;12.98;7.10;;;;;;;12.78;92.83;97630.91;5015782;28;20033;-77
2021/09/15 02:09:07;;;;;;;10.18;6.97;;;;;;;12.66;93.02;97619.22;5018324;28;20025;-76
2021/09/15 02:11:34;;;;;;;10.50;6.88;;;;;;;12.62;93.39;97631.13;5016099;28;20035;-76
2021/09/15 02:14:00;;;;;;;11.00;6.65;;;;;;;12.68;93.72;97635.19;5016493;28;20485;-76
2021/09/15 02:16:26;;;;;;;10.77;6.97;;;;;;;12.75;93.04;97625.75;5016256;28;20063;-76
2021/09/15 02:18:52;;;;;;;15.73;6.43;;;;;;;12.69;92.97;97621.69;5034009;28;20037;-76
2021/09/15 02:21:20;;;;;;;12.15;7.15;;;;;;;12.76;92.99;97630.19;5016289;28;20029;-76
2021/09/15 02:23:46;;;;;;;14.88;7.05;;;;;;;12.72;93.51;97625.97;5015947;28;20484;-76
2021/09/15 02:26:12;;;;;;;13.48;7.03;;;;;;;12.76;93.43;97638.22;5033960;28;20044;-76
2021/09/15 02:28:38;;;;;;;12.18;6.70;;;;;;;12.78;93.30;97633.59;5016086;28;20033;-76
2021/09/15 02:31:04;;;;;;;26.55;7.53;;;;;;;12.77;93.67;97634.56;5034139;28;20040;-76
2021/09/15 02:33:30;;;;;;;14.68;7.88;;;;;;;12.77;93.69;97631.88;4996471;28;20034;-76
2021/09/15 02:35:55;;;;;;;21.90;7.25;;;;;;;12.68;93.90;97624.47;4979890;28;20370;-76
2021/09/15 02:38:21;;;;;;;12.25;7.40;;;;;;;12.62;93.85;97619.50;5013754;28;20113;-76
2021/09/15 02:40:47;;;;;;;15.30;7.90;;;;;;;12.74;93.87;97640.13;5013594;28;20030;-76
2021/09/15 02:43:12;;;;;;;18.35;7.82;;;;;;;12.63;93.49;97615.88;4996239;28;20084;-76
2021/09/15 02:45:38;;;;;;;14.80;7.85;;;;;;;12.69;93.27;97628.88;5000460;28;20420;-76
2021/09/15 02:48:04;;;;;;;21.52;8.00;;;;;;;12.63;94.25;97635.53;5019490;28;20093;-76
2021/09/15 02:50:29;;;;;;;12.35;7.25;;;;;;;12.71;94.12;97638.53;4992844;28;20030;-77
2021/09/15 02:52:57;;;;;;;12.63;8.38;;;;;;;12.54;94.95;97622.75;5012257;28;20049;-76
2021/09/15 02:55:23;;;;;;;15.80;7.72;;;;;;;12.66;95.52;97650.56;4996197;28;20061;-76
2021/09/15 02:57:48;;;;;;;15.55;7.95;;;;;;;12.63;95.61;97651.63;4979687;28;20036;-76
2021/09/15 03:00:14;;;;;;;14.38;7.60;;;;;;;12.52;95.27;97625.53;4995932;28;20022;-77
2021/09/15 03:02:40;;;;;;;15.15;8.25;;;;;;;12.63;95.16;97638.22;5013236;28;20030;-76
2021/09/15 03:05:06;;;;;;;14.60;8.35;;;;;;;12.65;94.86;97640.78;5013877;28;20062;-76
2021/09/15 03:07:31;;;;;;;16.75;7.88;;;;;;;12.61;94.81;97620.50;4979829;28;20088;-76
2021/09/15 03:09:57;;;;;;;13.43;7.38;;;;;;;12.73;94.58;97643.81;5013261;28;20028;-77
2021/09/15 03:12:22;;;;;;;15.02;8.05;;;;;;;12.75;94.45;97637.38;5013367;28;20370;-76
2021/09/15 03:14:48;;;;;;;20.33;7.40;;;;;;;12.79;94.37;97643.38;4995405;28;20512;-76
2021/09/15 03:17:13;;;;;;;12.70;8.00;;;;;;;12.77;94.50;97640.78;5012110;28;20527;-76
2021/09/15 03:19:39;;;;;;;20.00;8.43;;;;;;;12.70;94.88;97636.84;5012999;28;20389;-76
2021/09/15 03:22:04;;;;;;;25.25;9.60;;;;;;;12.74;95.27;97635.63;4995103;28;20022;-76
2021/09/15 03:24:30;;;;;;;27.40;11.80;;;;;;;12.68;95.36;97632.50;4995277;28;20026;-77
2021/09/15 03:26:55;;;;;;;23.58;14.05;;;;;;;12.79;95.53;97646.06;5012663;28;20076;-77
2021/09/15 03:29:21;;;;;;;47.55;18.90;;;;;;;12.82;95.22;97656.59;4995189;28;20080;-76
2021/09/15 03:31:47;;;;;;;59.15;21.75;;;;;;;12.75;95.23;97650.78;5000692;28;20037;-76
2021/09/15 03:34:12;;;;;;;31.40;15.40;;;;;;;12.71;96.08;97656.44;5032653;28;20089;-76
2021/09/15 03:36:38;;;;;;;34.65;13.88;;;;;;;12.77;95.90;97664.94;5032403;28;20017;-76
2021/09/15 03:39:04;;;;;;;23.50;10.88;;;;;;;12.66;96.44;97662.16;5014522;28;20056;-76
2021/09/15 03:41:30;;;;;;;33.58;10.63;;;;;;;12.45;97.02;97653.75;5014702;28;20021;-76
2021/09/15 03:43:56;;;;;;;18.52;8.98;;;;;;;12.39;97.75;97656.84;5014507;28;20026;-76
2021/09/15 03:46:21;;;;;;;13.40;8.48;;;;;;;12.40;96.84;97660.38;5032158;28;20033;-75
2021/09/15 03:48:47;;;;;;;18.45;8.13;;;;;;;12.44;95.99;97667.25;5014426;28;20113;-76
2021/09/15 03:51:13;;;;;;;11.82;7.32;;;;;;;12.48;95.57;97664.28;5014505;28;20032;-75
2021/09/15 03:53:39;;;;;;;20.20;9.15;;;;;;;12.50;96.25;97674.88;5014917;28;20064;-76
2021/09/15 03:56:04;;;;;;;19.35;9.93;;;;;;;12.43;96.87;97669.06;5014834;28;20105;-76
2021/09/15 03:58:30;;;;;;;23.00;10.45;;;;;;;12.38;97.06;97673.91;5014530;28;20469;-76
2021/09/15 04:00:55;;;;;;;32.05;12.30;;;;;;;12.34;97.37;97680.41;5014232;28;20032;-76
2021/09/15 04:03:21;;;;;;;38.15;14.88;;;;;;;12.40;97.00;97679.13;5014437;28;20029;-76
2021/09/15 04:05:46;;;;;;;27.80;14.10;;;;;;;12.32;96.90;97671.63;5014426;28;20091;-76
2021/09/15 04:08:12;;;;;;;30.70;10.77;;;;;;;12.41;96.51;97681.75;4997684;28;20112;-76
2021/09/15 04:10:38;;;;;;;26.55;11.25;;;;;;;12.39;96.71;97686.34;5014235;28;20026;-76
2021/09/15 04:13:03;;;;;;;24.08;11.02;;;;;;;12.34;97.18;97687.59;5014083;28;20503;-76
2021/09/15 04:15:29;;;;;;;20.67;9.73;;;;;;;12.29;96.95;97677.19;5014338;28;20033;-75
2021/09/15 04:17:54;;;;;;;29.95;10.27;;;;;;;12.26;97.30;97672.03;5014527;28;20045;-77
2021/09/15 04:20:21;;;;;;;19.23;9.73;;;;;;;12.43;97.06;97690.53;5031603;28;20396;-76
2021/09/15 04:22:47;;;;;;;20.35;10.05;;;;;;;12.52;96.24;97699.78;5031657;28;20025;-76
2021/09/15 04:31:27;;;;;;;20.17;10.90;;;;;;;12.56;95.92;97695.94;5016132;28;20071;-76
2021/09/15 04:33:27;;;;;;;27.00;10.98;;;;;;;12.65;95.71;97706.06;5005862;28;20121;-76
2021/09/15 04:35:52;;;;;;;23.67;9.93;;;;;;;12.62;95.00;97690.16;5013493;28;20038;-76
2021/09/15 04:38:18;;;;;;;30.50;11.23;;;;;;;12.64;95.00;97701.66;5013351;28;20052;-77
2021/09/15 04:40:43;;;;;;;22.55;10.43;;;;;;;12.65;93.45;97697.13;5013628;28;20029;-76
2021/09/15 04:43:09;;;;;;;22.48;10.13;;;;;;;12.66;92.61;97702.41;5013785;28;20025;-76
2021/09/15 04:45:36;;;;;;;27.80;11.57;;;;;;;12.61;93.33;97709.06;5013613;28;20079;-76
2021/09/15 04:48:01;;;;;;;35.40;11.23;;;;;;;12.56;92.54;97717.41;5031087;28;20092;-75
2021/09/15 04:50:27;;;;;;;32.88;11.18;;;;;;;12.46;93.18;97710.91;5013573;28;20029;-76
2021/09/15 04:52:53;;;;;;;24.42;10.57;;;;;;;12.52;92.80;97714.06;5013634;28;20463;-76
2021/09/15 04:55:18;;;;;;;34.40;11.15;;;;;;;12.60;93.30;97708.19;5031045;28;20469;-75
2021/09/15 04:57:44;;;;;;;26.23;10.82;;;;;;;12.78;92.38;97719.50;5030972;28;20061;-76
2021/09/15 05:00:10;;;;;;;35.03;11.68;;;;;;;12.83;91.92;97722.72;5013142;28;20041;-76
2021/09/15 05:02:35;;;;;;;30.52;11.65;;;;;;;13.02;91.58;97728.56;5032246;28;20025;-77
2021/09/15 05:05:01;;;;;;;31.40;11.32;;;;;;;13.03;90.96;97714.19;5000511;28;20033;-77
2021/09/15 05:07:26;;;;;;;24.42;11.30;;;;;;;13.23;90.81;97723.56;5013243;28;20060;-76
2021/09/15 05:09:52;;;;;;;23.92;9.93;;;;;;;13.10;91.99;97723.56;4996861;28;20377;-76
2021/09/15 05:12:17;;;;;;;31.33;11.40;;;;;;;13.13;91.99;97726.03;5013274;28;20033;-77
2021/09/15 05:14:43;;;;;;;33.97;10.80;;;;;;;13.26;91.29;97729.56;5030938;28;20068;-74
2021/09/15 05:17:08;;;;;;;26.60;11.23;;;;;;;13.47;90.93;97730.75;5030844;28;20270;-77
2021/09/15 05:19:34;;;;;;;27.42;12.18;;;;;;;13.71;89.62;97727.31;5012969;28;20053;-76
2021/09/15 05:21:59;;;;;;;26.45;11.02;;;;;;;13.99;87.48;97719.84;4997058;28;20112;-77
2021/09/15 05:24:25;;;;;;;23.38;11.90;;;;;;;14.22;86.15;97720.81;5013231;28;20686;-76
2021/09/15 05:26:50;;;;;;;18.70;11.43;;;;;;;14.41;84.67;97714.97;5013438;28;20034;-77
2021/09/15 05:29:16;;;;;;;32.88;11.15;;;;;;;15.10;81.64;97727.63;5030678;28;20033;-76
2021/09/15 05:31:41;;;;;;;20.85;10.85;;;;;;;16.45;73.72;97711.31;5012892;28;20056;-77
2021/09/15 05:34:07;;;;;;;28.77;10.93;;;;;;;17.95;66.47;97728.09;5013099;28;20041;-76
2021/09/15 05:36:32;;;;;;;26.13;10.68;;;;;;;19.28;60.71;97734.78;5030906;28;20026;-77
2021/09/15 05:38:58;;;;;;;28.33;11.32;;;;;;;19.85;57.45;97726.53;5030854;28;20036;-77
2021/09/15 05:41:23;;;;;;;19.75;10.95;;;;;;;19.58;57.50;97736.47;5032358;28;20037;-77
2021/09/15 05:43:49;;;;;;;25.90;10.40;;;;;;;19.14;59.24;97741.47;5016676;28;20132;-74
2021/09/15 05:46:14;;;;;;;21.35;12.02;;;;;;;18.85;60.11;97717.09;5034274;28;20108;-78
2021/09/15 05:48:40;;;;;;;29.65;13.40;;;;;;;18.91;60.73;97730.06;5035160;28;20025;-74
2021/09/15 05:51:06;;;;;;;35.28;12.50;;;;;;;19.57;58.10;97737.44;5034064;28;20489;-75
2021/09/15 05:53:31;;;;;;;34.95;12.88;;;;;;;19.81;57.56;97752.25;5016584;28;20472;-74
2021/09/15 05:55:57;;;;;;;33.70;13.10;;;;;;;19.63;57.32;97732.28;5034334;28;20045;-77
2021/09/15 05:58:22;;;;;;;34.67;14.77;;;;;;;20.18;55.84;97719.66;5016216;28;20037;-77
2021/09/15 06:00:48;;;;;;;31.60;14.10;;;;;;;21.17;52.93;97735.09;5016278;28;20029;-76
2021/09/15 06:03:14;;;;;;;37.47;14.20;;;;;;;22.24;50.09;97741.16;5033717;28;20033;-76
2021/09/15 06:05:39;;;;;;;36.13;15.15;;;;;;;23.06;47.47;97731.25;5016562;28;20029;-77
2021/09/15 06:08:05;;;;;;;34.67;14.18;;;;;;;23.31;46.82;97739.44;5034014;28;20033;-77
2021/09/15 06:10:30;;;;;;;38.60;14.05;;;;;;;22.91;47.29;97742.97;5015884;28;20067;-76
2021/09/15 06:12:56;;;;;;;32.65;12.65;;;;;;;22.55;48.55;97755.94;5016119;28;20095;-77
2021/09/15 06:15:21;;;;;;;33.63;13.38;;;;;;;22.90;47.26;97738.53;5015900;28;20048;-77
2021/09/15 06:17:47;;;;;;;41.90;13.90;;;;;;;24.15;44.65;97748.97;5034083;28;20033;-76
2021/09/15 06:20:13;;;;;;;28.40;13.50;;;;;;;25.03;42.09;97733.25;5033884;28;20068;-77
2021/09/15 06:22:38;;;;;;;28.30;12.95;;;;;;;25.86;40.50;97728.66;5015755;28;20018;-77
2021/09/15 06:25:04;;;;;;;21.40;12.52;;;;;;;26.14;39.26;97736.25;4999303;28;20029;-77
2021/09/15 06:27:30;;;;;;;26.88;12.40;;;;;;;27.03;37.69;97711.34;5033303;28;21473;-77
2021/09/15 06:29:55;;;;;;;22.80;9.77;;;;;;;27.19;36.59;97716.59;5015685;28;20116;-77
2021/09/15 06:32:22;;;;;;;18.00;9.93;;;;;;;27.71;35.64;97721.78;5015432;28;20120;-77
2021/09/15 06:34:48;;;;;;;22.65;10.07;;;;;;;27.82;35.80;97726.72;5015828;28;20563;-77
2021/09/15 06:37:15;;;;;;;19.20;10.27;;;;;;;27.78;35.33;97719.09;5015770;28;20064;-77
2021/09/15 06:39:41;;;;;;;16.70;9.95;;;;;;;28.66;34.02;97713.81;4999293;28;20025;-77
2021/09/15 06:42:07;;;;;;;22.67;9.38;;;;;;;28.99;33.12;97702.91;5015821;28;20614;-77
2021/09/15 06:44:33;;;;;;;31.73;10.80;;;;;;;29.60;32.16;97703.69;4998900;28;20128;-77
2021/09/15 06:46:58;;;;;;;16.65;9.40;;;;;;;30.55;30.94;97714.25;5015739;28;20078;-77
2021/09/15 06:49:24;;;;;;;20.52;10.48;;;;;;;30.75;30.77;97706.78;5015558;28;20053;-77
2021/09/15 06:51:49;;;;;;;19.08;9.77;;;;;;;31.59;29.40;97701.06;5033062;28;20029;-75
2021/09/15 06:54:15;;;;;;;24.40;10.35;;;;;;;31.79;29.07;97714.72;5033028;28;20021;-74
2021/09/15 06:56:40;;;;;;;19.77;9.60;;;;;;;31.77;29.28;97703.03;5015484;28;20048;-75
2021/09/15 06:59:06;;;;;;;26.80;10.88;;;;;;;31.51;29.15;97716.00;5014835;28;20412;-75
2021/09/15 07:01:31;;;;;;;28.50;10.60;;;;;;;30.84;30.12;97704.59;5015050;28;20088;-78
2021/09/15 07:03:57;;;;;;;20.80;10.13;;;;;;;31.36;29.15;97700.75;5033028;28;20076;-75
2021/09/15 07:06:23;;;;;;;16.27;10.02;;;;;;;31.56;29.03;97702.34;5015074;28;20466;-75
2021/09/15 07:08:52;;;;;;;32.70;10.68;;;;;;;30.60;30.27;97711.72;5014905;28;20034;-78
2021/09/15 07:11:18;;;;;;;21.25;10.77;;;;;;;30.23;30.97;97720.69;5014900;28;20033;-75
2021/09/15 07:13:44;;;;;;;33.92;11.15;;;;;;;30.14;30.89;97703.50;5014771;28;20112;-78
2021/09/15 07:16:09;;;;;;;17.67;9.25;;;;;;;28.95;32.70;97729.16;5014961;28;20465;-75
2021/09/15 07:18:35;;;;;;;17.83;9.93;;;;;;;29.60;31.53;97728.50;5014663;28;20036;-75
2021/09/15 07:21:01;;;;;;;24.23;9.68;;;;;;;30.02;30.79;97719.03;5014699;28;20045;-75
2021/09/15 07:23:26;;;;;;;19.02;10.52;;;;;;;31.04;30.25;97710.94;5032205;28;20411;-76
2021/09/15 07:25:52;;;;;;;21.65;9.80;;;;;;;31.85;29.21;97730.44;5014856;28;20326;-76
2021/09/15 07:28:18;;;;;;;25.75;11.18;;;;;;;32.60;27.88;97724.69;5015360;28;20439;-75
2021/09/15 07:30:43;;;;;;;17.63;9.50;;;;;;;33.01;27.43;97707.31;4997846;28;20029;-75
2021/09/15 07:33:09;;;;;;;20.90;9.52;;;;;;;33.49;26.88;97723.97;5014363;28;20133;-76
2021/09/15 07:35:34;;;;;;;20.95;8.90;;;;;;;34.32;25.81;97710.06;5014614;28;20040;-76
2021/09/15 07:38:00;;;;;;;18.35;9.20;;;;;;;34.62;25.12;97713.56;5015035;28;20034;-76
2021/09/15 07:40:26;;;;;;;25.75;9.52;;;;;;;35.12;25.10;97711.09;5032178;28;20033;-76
2021/09/15 07:42:51;;;;;;;24.38;9.57;;;;;;;35.43;24.64;97709.75;5014695;28;20025;-76
2021/09/15 07:45:17;;;;;;;15.32;9.13;;;;;;;35.69;24.22;97706.38;5032161;28;20087;-76
2021/09/15 07:47:43;;;;;;;22.63;10.80;;;;;;;35.63;24.26;97712.94;5014593;28;20033;-75
2021/09/15 07:50:10;;;;;;;29.27;9.77;;;;;;;35.93;23.79;97703.47;5014376;28;20029;-76
2021/09/15 07:52:36;;;;;;;28.25;9.10;;;;;;;35.02;24.85;97701.63;5014077;28;20068;-76
2021/09/15 07:55:03;;;;;;;19.02;7.97;;;;;;;33.56;26.06;97705.28;4997817;28;20116;-75
2021/09/15 07:57:28;;;;;;;17.60;8.73;;;;;;;34.09;25.58;97699.75;4997834;28;20033;-78
2021/09/15 07:59:54;;;;;;;19.45;8.82;;;;;;;34.30;25.08;97712.25;4997426;28;20091;-75
2021/09/15 08:02:19;;;;;;;19.58;8.38;;;;;;;34.70;24.66;97695.69;5014110;28;20407;-75
2021/09/15 08:04:45;;;;;;;16.23;8.38;;;;;;;34.91;24.46;97697.81;5031035;28;20037;-76
2021/09/15 08:07:10;;;;;;;18.13;7.80;;;;;;;35.44;24.10;97703.06;4997670;28;20029;-77
2021/09/15 08:09:36;;;;;;;22.23;8.18;;;;;;;35.60;23.66;97690.31;4997313;28;20033;-74
2021/09/15 08:12:02;;;;;;;17.83;8.40;;;;;;;36.36;22.63;97690.53;5031333;28;20497;-74
2021/09/15 08:14:28;;;;;;;18.45;8.57;;;;;;;36.57;22.50;97702.03;5013922;28;20055;-74
2021/09/15 08:16:54;;;;;;;26.05;8.60;;;;;;;37.31;21.98;97701.38;5031361;28;20061;-75
2021/09/15 08:19:21;;;;;;;19.38;8.90;;;;;;;35.68;23.68;97696.34;5031487;28;20481;-74
2021/09/15 08:21:46;;;;;;;21.38;8.60;;;;;;;35.52;24.06;97702.69;5031112;28;20025;-75
2021/09/15 08:24:13;;;;;;;21.15;10.25;;;;;;;36.59;23.31;97703.47;5013709;28;20404;-74
2021/09/15 08:26:39;;;;;;;23.63;8.68;;;;;;;37.19;22.19;97688.66;5013761;28;20442;-74
2021/09/15 08:29:05;;;;;;;26.45;8.95;;;;;;;37.13;21.64;97678.56;5013947;28;20021;-74
2021/09/15 08:31:31;;;;;;;14.05;7.90;;;;;;;36.54;22.17;97683.03;5013550;28;20084;-74
2021/09/15 08:33:57;;;;;;;12.65;7.15;;;;;;;36.35;22.63;97688.00;5013641;28;20115;-75
2021/09/15 08:36:22;;;;;;;15.60;8.13;;;;;;;36.54;22.89;97696.97;5031218;28;20028;-74
2021/09/15 08:38:48;;;;;;;16.17;8.55;;;;;;;36.37;23.04;97683.00;5013588;28;20060;-77
2021/09/15 08:41:14;;;;;;;18.70;8.80;;;;;;;34.81;23.91;97692.03;5013307;28;20056;-74
2021/09/15 08:43:40;;;;;;;19.08;9.48;;;;;;;35.12;24.36;97687.97;5030708;28;20029;-74
2021/09/15 08:46:13;;;;;;;32.97;9.13;;;;;;;34.61;24.90;97694.38;5031039;28;20025;-74
2021/09/15 08:48:41;;;;;;;21.63;9.00;;;;;;;33.98;25.65;97699.75;5013257;28;20022;-74
2021/09/15 08:51:16;;;;;;;19.98;7.90;;;;;;;33.35;25.78;97682.81;5031126;28;20029;-74
2021/09/15 08:53:43;;;;;;;30.25;8.55;;;;;;;32.65;26.67;97686.03;4996863;28;20515;-77
2021/09/15 08:56:08;;;;;;;28.52;8.95;;;;;;;32.57;27.32;97682.72;5013608;28;20501;-74
2021/09/15 08:58:34;;;;;;;24.88;8.20;;;;;;;32.20;28.18;97698.44;5031170;28;20030;-74
2021/09/15 09:01:17;;;;;;;22.33;9.18;;;;;;;33.04;27.20;97695.75;4996721;28;20033;-77
2021/09/15 09:03:44;;;;;;;22.52;8.80;;;;;;;34.70;24.90;97676.22;5013187;28;20041;-74
2021/09/15 09:06:18;;;;;;;19.80;9.10;;;;;;;35.96;23.46;97675.94;5013369;28;20030;-74
2021/09/15 09:08:44;;;;;;;11.70;7.10;;;;;;;36.77;21.93;97668.84;5013034;28;20105;-75
2021/09/15 09:11:12;;;;;;;11.57;6.75;;;;;;;36.56;22.01;97664.94;5030925;28;20029;-75
2021/09/15 09:13:54;;;;;;;10.98;6.45;;;;;;;37.80;20.95;97657.50;5030834;28;20029;-76
2021/09/15 09:16:23;;;;;;;21.65;7.78;;;;;;;38.56;20.59;97660.91;5014974;28;20037;-76
2021/09/15 09:18:58;;;;;;;18.08;8.20;;;;;;;39.52;19.94;97652.94;5016825;28;20385;-75
2021/09/15 09:21:28;;;;;;;16.98;6.85;;;;;;;40.10;19.48;97662.00;5017036;28;20087;-75
2021/09/15 09:24:05;;;;;;;13.00;5.78;;;;;;;41.12;17.98;97647.50;5016947;28;20029;-75
2021/09/15 09:27:03;;;;;;;10.13;5.90;;;;;;;40.94;17.63;97637.75;5017046;28;20059;-75
2021/09/15 09:29:35;;;;;;;13.05;7.00;;;;;;;41.27;18.22;97635.31;4994772;28;20187;-75
2021/09/15 09:32:15;;;;;;;8.68;6.07;;;;;;;42.12;16.80;97637.56;5000008;28;20075;-75
2021/09/15 09:34:49;;;;;;;9.63;5.55;;;;;;;42.23;16.43;97627.09;5017055;28;20042;-73
2021/09/15 09:37:20;;;;;;;8.40;5.80;;;;;;;41.93;16.74;97628.16;5000412;28;20112;-77
2021/09/15 09:39:51;;;;;;;9.90;5.93;;;;;;;40.13;18.14;97620.22;5034229;28;20026;-74
2021/09/15 09:42:23;;;;;;;10.85;5.32;;;;;;;38.33;19.03;97616.56;5016730;28;20488;-74
2021/09/15 09:44:53;;;;;;;6.95;5.25;;;;;;;38.63;19.36;97622.34;5033941;28;20144;-74
2021/09/15 09:47:23;;;;;;;15.75;5.93;;;;;;;39.78;18.09;97617.44;4999976;28;20022;-74
2021/09/15 09:50:09;;;;;;;9.15;5.60;;;;;;;40.30;18.12;97620.75;5016164;28;20053;-74
2021/09/15 09:52:55;;;;;;;16.42;5.57;;;;;;;41.08;17.69;97612.69;5016499;28;20061;-75
2021/09/15 09:55:22;;;;;;;10.82;5.93;;;;;;;40.18;17.73;97608.19;5003967;28;20018;-76
2021/09/15 09:57:51;;;;;;;28.45;5.70;;;;;;;39.08;19.10;97610.50;5016273;28;20193;-76
2021/09/15 10:00:18;;;;;;;12.68;5.43;;;;;;;39.69;18.99;97605.91;5016223;28;20032;-75
2021/09/15 10:02:43;;;;;;;11.20;4.80;;;;;;;39.83;19.29;97606.22;4999581;28;20056;-75
2021/09/15 10:05:09;;;;;;;13.18;5.40;;;;;;;40.10;18.62;97597.50;5016095;28;20049;-75
2021/09/15 10:07:37;;;;;;;8.85;5.80;;;;;;;40.85;18.60;97605.75;5033652;28;20025;-74
2021/09/15 10:10:04;;;;;;;9.45;6.15;;;;;;;40.16;18.27;97599.19;5033368;28;20492;-74
2021/09/15 10:12:31;;;;;;;12.45;7.93;;;;;;;41.02;16.81;97597.84;5015830;28;20065;-74
2021/09/15 10:14:59;;;;;;;9.68;5.13;;;;;;;41.30;17.05;97587.00;5015514;28;20028;-75
2021/09/15 10:17:28;;;;;;;9.77;5.10;;;;;;;40.10;17.51;97580.69;5015623;28;20078;-75
2021/09/15 10:19:54;;;;;;;12.30;4.70;;;;;;;40.43;17.60;97585.66;4999157;28;20420;-74
2021/09/15 10:22:31;;;;;;;10.65;5.03;;;;;;;40.92;17.06;97575.38;5015881;28;20013;-75
2021/09/15 10:24:58;;;;;;;11.85;4.80;;;;;;;40.94;16.94;97575.97;5015620;28;20017;-74
2021/09/15 10:27:31;;;;;;;14.10;7.10;;;;;;;38.46;18.46;97565.75;5032713;28;20025;-74
2021/09/15 10:30:14;;;;;;;10.98;5.20;;;;;;;36.89;20.06;97578.34;5033067;28;20374;-74
2021/09/15 10:32:48;;;;;;;10.70;6.20;;;;;;;38.43;19.08;97571.88;5015459;28;20049;-76
2021/09/15 10:35:15;;;;;;;9.55;5.00;;;;;;;40.10;17.61;97575.09;5015489;28;20021;-74
2021/09/15 10:37:41;;;;;;;9.32;4.80;;;;;;;40.88;17.56;97574.31;5015661;28;20169;-75
2021/09/15 10:40:08;;;;;;;11.13;5.25;;;;;;;40.99;16.13;97558.25;5032847;28;20445;-75
2021/09/15 10:42:34;;;;;;;8.30;5.50;;;;;;;41.98;15.46;97571.03;5032979;28;20052;-74
2021/09/15 10:45:22;;;;;;;13.40;5.13;;;;;;;42.24;15.59;97564.03;5032911;28;20044;-75
2021/09/15 10:47:52;;;;;;;6.97;4.72;;;;;;;42.02;15.46;97561.72;5033234;28;20044;-75
2021/09/15 10:50:47;;;;;;;9.35;4.97;;;;;;;42.02;15.40;97550.47;5032825;28;20104;-74
2021/09/15 10:53:13;;;;;;;8.05;4.43;;;;;;;41.24;15.62;97551.63;5032280;28;20025;-75
2021/09/15 10:55:47;;;;;;;10.88;4.78;;;;;;;40.77;16.27;97546.53;5015365;28;20086;-75
2021/09/15 10:58:22;;;;;;;10.10;4.88;;;;;;;40.94;16.03;97547.91;5015035;28;20021;-74
2021/09/15 11:01:00;;;;;;;9.80;4.80;;;;;;;40.97;16.10;97535.25;5032511;28;20108;-74
2021/09/15 11:03:32;;;;;;;10.60;5.35;;;;;;;41.34;16.20;97548.75;5000784;28;20048;-74
2021/09/15 11:06:18;;;;;;;9.48;4.68;;;;;;;42.66;14.69;97529.53;5032473;28;20064;-74
2021/09/15 11:08:46;;;;;;;4.70;4.10;;;;;;;42.39;15.07;97526.47;5015055;28;20030;-76
2021/09/15 11:11:20;;;;;;;15.88;5.18;;;;;;;42.15;15.20;97524.44;5032309;28;20408;-76
2021/09/15 11:13:53;;;;;;;8.68;5.53;;;;;;;41.67;15.85;97522.66;5032579;28;20109;-74
2021/09/15 11:16:41;;;;;;;10.02;4.53;;;;;;;41.24;16.11;97517.94;4998243;28;20044;-75
2021/09/15 11:19:18;;;;;;;16.15;5.35;;;;;;;41.62;15.82;97522.72;5014489;28;20029;-77
2021/09/15 11:21:53;;;;;;;5.38;4.82;;;;;;;41.03;16.18;97512.47;5032486;28;20048;-75
2021/09/15 11:24:21;;;;;;;7.43;4.60;;;;;;;42.50;15.04;97502.69;5032249;28;20033;-74
2021/09/15 11:26:55;;;;;;;12.65;5.70;;;;;;;42.34;15.17;97493.59;5014647;28;20021;-75
2021/09/15 11:29:44;;;;;;;7.32;5.32;;;;;;;43.38;14.35;97502.06;5014210;28;20029;-75